createdAt,value
2023-06-06T00:01:21.453Z,101253.09
2023-06-06T00:03:50.505Z,101252.16
2023-06-06T00:06:22.041Z,101252.22
2023-06-06T00:08:53.996Z,101245.16
2023-06-06T00:11:21.872Z,101253.03
2023-06-06T00:13:51.653Z,101241.63
2023-06-06T00:16:18.682Z,101248.53
2023-06-06T00:18:54.137Z,101242.41
2023-06-06T00:21:22.501Z,101248.63
2023-06-06T00:23:50.306Z,101243.22
2023-06-06T00:26:17.114Z,101245.69
2023-06-06T00:28:46.545Z,101238.72
2023-06-06T00:31:14.637Z,101242.28
2023-06-06T00:33:41.370Z,101243.13
2023-06-06T00:36:08.467Z,101249.28
2023-06-06T00:38:35.217Z,101244.06
2023-06-06T00:41:01.953Z,101244.94
2023-06-06T00:43:28.690Z,101248.38
2023-06-06T00:45:56.465Z,101245.72
2023-06-06T00:48:24.254Z,101255.22
2023-06-06T00:50:51.561Z,101257.00
2023-06-06T00:53:18.576Z,101249.22
2023-06-06T00:55:46.397Z,101250.03
2023-06-06T00:58:13.972Z,101260.50
2023-06-06T01:00:41.581Z,101262.13
2023-06-06T01:03:15.603Z,101257.00
2023-06-06T01:05:43.557Z,101255.06
2023-06-06T01:08:13.210Z,101258.53
2023-06-06T01:10:41.609Z,101261.16
2023-06-06T01:13:29.603Z,101259.47
2023-06-06T01:16:01.144Z,101261.28
2023-06-06T01:18:28.883Z,101254.28
2023-06-06T01:20:56.295Z,101258.44
2023-06-06T01:23:24.977Z,101260.09
2023-06-06T01:25:51.878Z,101258.31
2023-06-06T01:28:18.974Z,101256.59
2023-06-06T01:30:47.164Z,101256.44
2023-06-06T01:33:39.960Z,101259.94
2023-06-06T01:36:22.155Z,101250.38
2023-06-06T01:38:54.815Z,101249.59
2023-06-06T01:41:23.699Z,101255.78
2023-06-06T01:43:55.414Z,101253.00
2023-06-06T01:46:25.583Z,101251.94
2023-06-06T01:48:53.979Z,101255.38
2023-06-06T01:51:21.172Z,101258.13
2023-06-06T01:53:48.142Z,101255.34
2023-06-06T01:56:15.170Z,101263.41
2023-06-06T01:58:43.598Z,101261.81
2023-06-06T02:01:10.876Z,101256.63
2023-06-06T02:03:38.242Z,101260.06
2023-06-06T02:06:06.271Z,101254.84
2023-06-06T02:08:33.275Z,101259.19
2023-06-06T02:11:00.153Z,101264.53
2023-06-06T02:13:27.214Z,101262.75
2023-06-06T02:15:53.979Z,101258.47
2023-06-06T02:18:21.154Z,101261.06
2023-06-06T02:20:48.089Z,101258.56
2023-06-06T02:23:15.347Z,101262.81
2023-06-06T02:25:42.034Z,101265.31
2023-06-06T02:28:09.478Z,101258.41
2023-06-06T02:30:36.361Z,101254.81
2023-06-06T02:33:03.720Z,101258.19
2023-06-06T02:35:30.611Z,101257.31
2023-06-06T02:37:57.442Z,101255.50
2023-06-06T02:40:24.301Z,101257.34
2023-06-06T02:42:51.097Z,101253.81
2023-06-06T02:45:17.984Z,101253.72
2023-06-06T02:47:46.156Z,101262.34
2023-06-06T02:50:12.928Z,101258.81
2023-06-06T02:52:42.271Z,101256.00
2023-06-06T02:55:09.692Z,101255.19
2023-06-06T02:57:37.604Z,101257.00
2023-06-06T03:00:09.904Z,101261.34
2023-06-06T03:02:37.050Z,101266.56
2023-06-06T03:05:04.705Z,101262.28
2023-06-06T03:07:31.927Z,101265.78
2023-06-06T03:09:58.874Z,101265.69
2023-06-06T03:12:32.079Z,101268.28
2023-06-06T03:14:59.750Z,101275.28
2023-06-06T03:17:33.726Z,101271.88
2023-06-06T03:20:00.698Z,101273.63
2023-06-06T03:22:29.310Z,101275.28
2023-06-06T03:24:57.328Z,101277.00
2023-06-06T03:27:24.827Z,101269.09
2023-06-06T03:29:54.198Z,101283.78
2023-06-06T03:32:24.543Z,101282.88
2023-06-06T03:34:52.774Z,101283.63
2023-06-06T03:37:19.572Z,101283.66
2023-06-06T03:39:46.890Z,101273.19
2023-06-06T03:42:14.453Z,101276.50
2023-06-06T03:44:43.703Z,101283.59
2023-06-06T03:47:11.868Z,101276.66
2023-06-06T03:49:38.715Z,101279.38
2023-06-06T03:52:06.908Z,101280.31
2023-06-06T03:54:37.787Z,101284.72
2023-06-06T03:57:09.800Z,101282.88
2023-06-06T03:59:36.682Z,101286.41
2023-06-06T04:02:04.202Z,101282.03
2023-06-06T04:04:32.190Z,101279.38
2023-06-06T04:06:59.780Z,101281.00
2023-06-06T04:09:28.948Z,101277.44
2023-06-06T04:11:55.855Z,101282.72
2023-06-06T04:14:24.710Z,101287.19
2023-06-06T04:16:51.891Z,101283.75
2023-06-06T04:19:19.571Z,101289.00
2023-06-06T04:21:49.411Z,101289.00
2023-06-06T04:24:16.307Z,101287.44
2023-06-06T04:26:43.210Z,101290.06
2023-06-06T04:29:14.389Z,101295.34
2023-06-06T04:31:42.593Z,101284.09
2023-06-06T04:34:13.693Z,101279.09
2023-06-06T04:36:41.305Z,101287.78
2023-06-06T04:39:10.439Z,101282.38
2023-06-06T04:44:08.209Z,101293.78
2023-06-06T04:46:35.102Z,101291.09
2023-06-06T04:49:02.620Z,101289.31
2023-06-06T04:51:31.131Z,101291.00
2023-06-06T04:53:59.975Z,101285.84
2023-06-06T04:56:29.984Z,101292.00
2023-06-06T04:59:07.849Z,101296.38
2023-06-06T05:01:38.308Z,101296.22
2023-06-06T05:04:06.280Z,101296.84
2023-06-06T05:06:35.698Z,101295.28
2023-06-06T05:09:05.428Z,101284.06
2023-06-06T05:11:32.201Z,101304.81
2023-06-06T05:13:58.966Z,101309.00
2023-06-06T05:16:26.356Z,101299.69
2023-06-06T05:18:53.223Z,101299.66
2023-06-06T05:21:20.897Z,101303.47
2023-06-06T05:23:47.987Z,101299.34
2023-06-06T05:26:14.729Z,101294.19
2023-06-06T05:28:41.527Z,101298.63
2023-06-06T05:31:09.207Z,101291.56
2023-06-06T05:33:41.867Z,101291.25
2023-06-06T05:36:08.803Z,101291.59
2023-06-06T05:38:35.453Z,101301.47
2023-06-06T05:41:02.130Z,101296.09
2023-06-06T05:43:31.780Z,101296.38
2023-06-06T05:45:59.011Z,101301.28
2023-06-06T05:48:25.851Z,101298.78
2023-06-06T05:50:52.769Z,101296.16
2023-06-06T05:53:19.559Z,101302.44
2023-06-06T05:55:46.304Z,101297.22
2023-06-06T05:58:13.019Z,101287.78
2023-06-06T06:00:39.791Z,101293.94
2023-06-06T06:03:09.103Z,101293.94
2023-06-06T06:05:36.507Z,101296.59
2023-06-06T06:08:04.251Z,101294.06
2023-06-06T06:10:38.130Z,101300.91
2023-06-06T06:13:06.586Z,101294.91
2023-06-06T06:15:35.645Z,101295.88
2023-06-06T06:18:04.223Z,101296.69
2023-06-06T06:20:31.003Z,101300.22
2023-06-06T06:22:57.735Z,101298.56
2023-06-06T06:25:24.511Z,101299.53
2023-06-06T06:27:52.140Z,101296.88
2023-06-06T06:30:19.827Z,101299.50
2023-06-06T06:32:47.240Z,101306.44
2023-06-06T06:35:16.662Z,101307.31
2023-06-06T06:37:50.069Z,101303.00
2023-06-06T06:40:23.143Z,101308.28
2023-06-06T06:42:52.998Z,101309.16
2023-06-06T06:45:29.680Z,101313.53
2023-06-06T06:47:56.619Z,101315.28
2023-06-06T06:50:23.365Z,101313.56
2023-06-06T06:52:50.296Z,101316.22
2023-06-06T06:55:18.008Z,101313.59
2023-06-06T06:57:46.159Z,101313.56
2023-06-06T07:00:14.954Z,101315.34
2023-06-06T07:02:45.894Z,101320.56
2023-06-06T07:05:13.521Z,101317.06
2023-06-06T07:07:45.223Z,101324.09
2023-06-06T07:10:15.347Z,101325.81
2023-06-06T07:12:42.884Z,101324.94
2023-06-06T07:15:10.285Z,101318.72
2023-06-06T07:17:37.011Z,101323.09
2023-06-06T07:20:06.357Z,101324.84
2023-06-06T07:22:37.257Z,101321.38
2023-06-06T07:25:07.418Z,101326.56
2023-06-06T07:27:36.388Z,101325.56
2023-06-06T07:30:04.870Z,101323.88
2023-06-06T07:32:32.252Z,101316.75
2023-06-06T07:34:59.075Z,101310.53
2023-06-06T07:37:25.703Z,101317.72
2023-06-06T07:39:52.785Z,101299.25
2023-06-06T07:42:21.577Z,101315.06
2023-06-06T07:44:49.362Z,101306.28
2023-06-06T07:47:16.313Z,101311.41
2023-06-06T07:49:44.449Z,101304.31
2023-06-06T07:52:12.286Z,101308.69
2023-06-06T07:54:39.237Z,101309.53
2023-06-06T07:57:09.102Z,101307.81
2023-06-06T07:59:35.942Z,101310.59
2023-06-06T08:02:03.034Z,101311.41
2023-06-06T08:04:30.170Z,101309.44
2023-06-06T08:06:57.186Z,101306.69
2023-06-06T08:09:23.908Z,101304.81
2023-06-06T08:11:50.924Z,101299.72
2023-06-06T08:14:17.687Z,101308.31
2023-06-06T08:16:44.508Z,101308.16
2023-06-06T08:19:11.284Z,101309.84
2023-06-06T08:21:38.338Z,101305.44
2023-06-06T08:24:05.256Z,101302.81
2023-06-06T08:26:32.611Z,101300.03
2023-06-06T08:28:59.619Z,101305.03
2023-06-06T08:31:26.590Z,101300.56
2023-06-06T08:33:53.615Z,101303.31
2023-06-06T08:36:20.445Z,101303.13
2023-06-06T08:38:47.153Z,101296.00
2023-06-06T08:41:17.948Z,101296.69
2023-06-06T08:43:47.730Z,101294.72
2023-06-06T08:46:16.476Z,101300.03
2023-06-06T08:48:44.815Z,101298.59
2023-06-06T08:51:13.759Z,101302.78
2023-06-06T08:53:43.335Z,101296.94
2023-06-06T08:56:12.800Z,101293.81
2023-06-06T08:58:41.790Z,101297.69
2023-06-06T09:01:12.861Z,101310.78
2023-06-06T09:03:44.749Z,101311.72
2023-06-06T09:06:13.190Z,101305.38
2023-06-06T09:08:41.100Z,101310.75
2023-06-06T09:11:07.901Z,101312.63
2023-06-06T09:13:34.610Z,101311.22
2023-06-06T09:16:04.687Z,101310.06
2023-06-06T09:18:33.364Z,101308.31
2023-06-06T09:21:00.203Z,101306.97
2023-06-06T09:23:31.571Z,101306.06
2023-06-06T09:25:59.089Z,101306.88
2023-06-06T09:28:40.056Z,101307.84
2023-06-06T09:31:38.428Z,101310.22
2023-06-06T09:34:09.781Z,101307.59
2023-06-06T09:36:41.501Z,101307.47
2023-06-06T09:39:14.310Z,101307.56
2023-06-06T09:41:41.967Z,101304.72
2023-06-06T09:44:21.796Z,101297.22
2023-06-06T09:46:58.480Z,101300.06
2023-06-06T09:49:25.387Z,101300.34
2023-06-06T09:51:55.297Z,101288.78
2023-06-06T09:54:24.721Z,101290.53
2023-06-06T09:56:53.301Z,101292.94
2023-06-06T09:59:22.396Z,101301.06
2023-06-06T10:01:54.949Z,101303.72
2023-06-06T10:04:22.329Z,101299.13
2023-06-06T10:06:50.416Z,101301.44
2023-06-06T10:09:17.738Z,101300.50
2023-06-06T10:11:44.894Z,101293.69
2023-06-06T10:14:12.162Z,101294.03
2023-06-06T10:16:40.264Z,101293.59
2023-06-06T10:19:09.417Z,101288.47
2023-06-06T10:21:37.854Z,101293.34
2023-06-06T10:24:05.218Z,101288.25
2023-06-06T10:27:01.661Z,101289.44
2023-06-06T10:29:49.966Z,101287.78
2023-06-06T10:32:26.310Z,101289.28
2023-06-06T10:34:56.297Z,101289.50
2023-06-06T10:37:23.383Z,101286.66
2023-06-06T10:40:01.392Z,101284.97
2023-06-06T10:42:41.425Z,101282.81
2023-06-06T10:45:08.710Z,101280.28
2023-06-06T10:47:39.905Z,101286.56
2023-06-06T10:50:12.761Z,101288.28
2023-06-06T10:53:00.804Z,101286.47
2023-06-06T10:55:27.861Z,101284.06
2023-06-06T10:58:06.745Z,101287.25
2023-06-06T11:00:40.853Z,101290.28
2023-06-06T11:03:09.638Z,101282.63
2023-06-06T11:06:01.163Z,101281.72
2023-06-06T11:08:38.065Z,101282.88
2023-06-06T11:11:16.962Z,101280.75
2023-06-06T11:14:09.911Z,101275.91
2023-06-06T11:16:40.041Z,101277.00
2023-06-06T11:19:10.086Z,101280.31
2023-06-06T11:21:37.970Z,101279.81
2023-06-06T11:24:10.670Z,101288.72
2023-06-06T11:26:40.230Z,101285.03
2023-06-06T11:29:10.746Z,101287.94
2023-06-06T11:31:39.608Z,101283.50
2023-06-06T11:34:11.825Z,101286.00
2023-06-06T11:36:43.810Z,101280.34
2023-06-06T11:39:13.320Z,101281.78
2023-06-06T11:41:45.501Z,101277.03
2023-06-06T11:44:13.268Z,101274.91
2023-06-06T11:46:46.717Z,101274.41
2023-06-06T11:49:13.503Z,101268.94
2023-06-06T11:51:40.308Z,101265.44
2023-06-06T11:54:20.727Z,101258.25
2023-06-06T11:56:53.411Z,101255.28
2023-06-06T11:59:21.524Z,101262.84
2023-06-06T12:01:54.101Z,101264.34
2023-06-06T12:04:22.290Z,101258.13
2023-06-06T12:06:51.821Z,101259.50
2023-06-06T12:09:19.728Z,101259.25
2023-06-06T12:11:56.439Z,101263.66
2023-06-06T12:14:25.279Z,101254.00
2023-06-06T12:16:53.468Z,101260.78
2023-06-06T12:19:20.984Z,101262.44
2023-06-06T12:21:49.966Z,101260.66
2023-06-06T12:24:21.243Z,101254.81
2023-06-06T12:26:57.274Z,101253.53
2023-06-06T12:29:28.035Z,101264.16
2023-06-06T12:32:17.474Z,101257.22
2023-06-06T12:34:51.648Z,101261.41
2023-06-06T12:37:19.105Z,101259.44
2023-06-06T12:39:47.278Z,101263.34
2023-06-06T12:42:19.514Z,101257.25
2023-06-06T12:44:48.209Z,101258.75
2023-06-06T12:47:16.517Z,101244.94
2023-06-06T12:49:44.047Z,101247.84
2023-06-06T12:52:12.786Z,101254.75
2023-06-06T12:54:42.913Z,101255.78
2023-06-06T12:57:11.385Z,101256.00
2023-06-06T12:59:43.912Z,101256.94
2023-06-06T13:02:12.041Z,101259.19
2023-06-06T13:04:40.908Z,101253.63
2023-06-06T13:07:14.449Z,101250.94
2023-06-06T13:09:41.722Z,101254.94
2023-06-06T13:12:10.231Z,101252.78
2023-06-06T13:14:38.633Z,101248.91
2023-06-06T13:17:12.985Z,101245.56
2023-06-06T13:19:41.288Z,101243.59
2023-06-06T13:22:08.602Z,101251.50
2023-06-06T13:24:35.632Z,101244.88
2023-06-06T13:27:02.641Z,101254.50
2023-06-06T13:29:29.504Z,101248.66
2023-06-06T13:31:56.531Z,101238.78
2023-06-06T13:34:23.600Z,101240.22
2023-06-06T13:36:50.371Z,101249.50
2023-06-06T13:39:17.139Z,101233.19
2023-06-06T13:41:44.226Z,101240.59
2023-06-06T13:44:17.935Z,101236.41
2023-06-06T13:46:59.608Z,101230.09
2023-06-06T13:49:27.985Z,101234.97
2023-06-06T13:51:54.965Z,101234.25
2023-06-06T13:54:22.049Z,101232.44
2023-06-06T13:56:53.137Z,101233.63
2023-06-06T13:59:21.362Z,101240.16
2023-06-06T14:01:50.227Z,101237.03
2023-06-06T14:04:17.415Z,101233.00
2023-06-06T14:06:44.665Z,101238.91
2023-06-06T14:09:15.525Z,101242.84
2023-06-06T14:11:45.566Z,101231.72
2023-06-06T14:14:13.795Z,101233.00
2023-06-06T14:16:40.754Z,101237.78
2023-06-06T14:19:15.224Z,101233.56
2023-06-06T14:21:42.878Z,101239.81
2023-06-06T14:24:10.973Z,101233.31
2023-06-06T14:26:37.986Z,101232.06
2023-06-06T14:29:04.776Z,101233.56
2023-06-06T14:31:33.224Z,101237.59
2023-06-06T14:33:59.985Z,101229.84
2023-06-06T14:36:26.957Z,101226.38
2023-06-06T14:38:53.695Z,101224.41
2023-06-06T14:41:20.567Z,101222.81
2023-06-06T14:43:48.285Z,101216.34
2023-06-06T14:46:15.884Z,101226.00
2023-06-06T14:48:46.800Z,101224.94
2023-06-06T14:51:14.075Z,101219.31
2023-06-06T14:53:40.768Z,101215.81
2023-06-06T14:56:09.976Z,101212.19
2023-06-06T14:58:36.627Z,101212.97
2023-06-06T15:01:03.891Z,101215.63
2023-06-06T15:03:31.067Z,101221.88
2023-06-06T15:05:58.076Z,101227.47
2023-06-06T15:08:24.829Z,101221.13
2023-06-06T15:10:51.614Z,101217.50
2023-06-06T15:13:19.423Z,101214.75
2023-06-06T15:15:46.258Z,101215.41
2023-06-06T15:18:13.188Z,101218.19
2023-06-06T15:20:39.951Z,101206.69
2023-06-06T15:23:08.339Z,101214.72
2023-06-06T15:25:35.344Z,101212.25
2023-06-06T15:28:02.458Z,101211.69
2023-06-06T15:30:29.207Z,101219.47
2023-06-06T15:32:56.078Z,101212.94
2023-06-06T15:35:22.967Z,101211.97
2023-06-06T15:37:49.758Z,101204.72
2023-06-06T15:40:17.116Z,101196.34
2023-06-06T15:42:43.899Z,101196.09
2023-06-06T15:45:11.038Z,101189.50
2023-06-06T15:47:38.074Z,101187.09
2023-06-06T15:50:05.629Z,101191.00
2023-06-06T15:52:32.358Z,101186.31
2023-06-06T15:54:59.529Z,101184.13
2023-06-06T15:57:26.540Z,101192.75
2023-06-06T15:59:58.297Z,101185.97
2023-06-06T16:02:25.058Z,101188.50
2023-06-06T16:04:51.778Z,101179.69
2023-06-06T16:07:18.526Z,101177.53
2023-06-06T16:09:45.368Z,101176.72
2023-06-06T16:12:12.273Z,101181.34
2023-06-06T16:14:39.064Z,101183.59
2023-06-06T16:17:09.065Z,101189.16
2023-06-06T16:19:35.874Z,101184.75
2023-06-06T16:22:02.721Z,101177.75
2023-06-06T16:24:29.433Z,101175.47
2023-06-06T16:26:56.163Z,101171.56
2023-06-06T16:29:23.124Z,101172.44
2023-06-06T16:31:50.031Z,101172.88
2023-06-06T16:34:16.913Z,101179.94
2023-06-06T16:36:45.028Z,101182.41
2023-06-06T16:39:13.185Z,101182.09
2023-06-06T16:41:40.820Z,101185.25
2023-06-06T16:44:12.103Z,101182.97
2023-06-06T16:46:40.483Z,101187.97
2023-06-06T16:49:07.516Z,101193.75
2023-06-06T16:51:34.234Z,101192.06
2023-06-06T16:54:01.913Z,101189.22
2023-06-06T16:56:28.788Z,101195.41
2023-06-06T16:58:55.653Z,101197.03
2023-06-06T17:01:22.717Z,101198.94
2023-06-06T17:03:50.134Z,101191.22
2023-06-06T17:06:17.374Z,101188.88
2023-06-06T17:08:44.355Z,101191.53
2023-06-06T17:11:12.421Z,101185.06
2023-06-06T17:13:39.140Z,101191.03
2023-06-06T17:16:06.008Z,101196.47
2023-06-06T17:18:32.788Z,101195.50
2023-06-06T17:21:01.243Z,101187.13
2023-06-06T17:23:28.050Z,101191.28
2023-06-06T17:25:54.825Z,101190.56
2023-06-06T17:28:21.773Z,101197.56
2023-06-06T17:30:51.238Z,101185.38
2023-06-06T17:33:18.432Z,101181.72
2023-06-06T17:35:45.212Z,101177.19
2023-06-06T17:38:12.260Z,101180.94
2023-06-06T17:40:38.977Z,101172.47
2023-06-06T17:43:05.933Z,101181.41
2023-06-06T17:45:32.656Z,101187.69
2023-06-06T17:47:59.587Z,101189.41
2023-06-06T17:50:28.865Z,101193.13
2023-06-06T17:52:56.956Z,101188.72
2023-06-06T17:55:23.996Z,101188.66
2023-06-06T17:57:50.776Z,101182.50
2023-06-06T18:00:18.372Z,101172.06
2023-06-06T18:02:45.623Z,101184.66
2023-06-06T18:05:27.887Z,101180.34
2023-06-06T18:07:59.382Z,101179.97
2023-06-06T18:10:27.165Z,101181.81
2023-06-06T18:12:56.065Z,101180.56
2023-06-06T18:15:23.564Z,101179.72
2023-06-06T18:17:51.999Z,101182.50
2023-06-06T18:20:18.882Z,101183.34
2023-06-06T18:22:45.687Z,101182.41
2023-06-06T18:25:13.494Z,101184.19
2023-06-06T18:27:40.483Z,101178.72
2023-06-06T18:30:15.071Z,101185.94
2023-06-06T18:32:42.392Z,101179.88
2023-06-06T18:35:13.156Z,101177.31
2023-06-06T18:37:46.562Z,101178.22
2023-06-06T18:40:20.426Z,101173.16
2023-06-06T18:42:51.233Z,101176.72
2023-06-06T18:45:18.284Z,101179.47
2023-06-06T18:47:46.020Z,101176.16
2023-06-06T18:50:15.012Z,101182.50
2023-06-06T18:52:41.863Z,101180.09
2023-06-06T18:55:09.346Z,101177.75
2023-06-06T18:57:36.175Z,101189.47
2023-06-06T19:00:06.515Z,101190.53
2023-06-06T19:02:51.841Z,101189.78
2023-06-06T19:05:29.789Z,101205.75
2023-06-06T19:08:15.917Z,101204.00
2023-06-06T19:11:04.363Z,101208.22
2023-06-06T19:13:43.780Z,101215.34
2023-06-06T19:16:27.467Z,101217.31
2023-06-06T19:19:04.399Z,101221.66
2023-06-06T19:21:40.886Z,101217.31
2023-06-06T19:24:14.536Z,101219.75
2023-06-06T19:26:51.161Z,101222.56
2023-06-06T19:29:26.951Z,101222.75
2023-06-06T19:32:05.536Z,101217.84
2023-06-06T19:34:35.534Z,101223.66
2023-06-06T19:37:02.298Z,101224.81
2023-06-06T19:39:28.989Z,101230.50
2023-06-06T19:41:55.866Z,101230.53
2023-06-06T19:44:22.809Z,101227.72
2023-06-06T19:46:49.603Z,101233.16
2023-06-06T19:49:16.611Z,101238.75
2023-06-06T19:51:43.375Z,101236.72
2023-06-06T19:54:10.124Z,101244.13
2023-06-06T19:56:36.766Z,101254.59
2023-06-06T19:59:03.618Z,101250.09
2023-06-06T20:01:30.787Z,101249.63
2023-06-06T20:03:57.704Z,101252.00
2023-06-06T20:06:25.427Z,101247.91
2023-06-06T20:08:52.226Z,101256.69
2023-06-06T20:11:18.924Z,101255.59
2023-06-06T20:13:45.702Z,101260.97
2023-06-06T20:16:12.668Z,101263.56
2023-06-06T20:18:39.443Z,101260.97
2023-06-06T20:21:08.808Z,101260.63
2023-06-06T20:23:35.504Z,101265.31
2023-06-06T20:26:04.795Z,101259.22
2023-06-06T20:28:33.957Z,101257.38
2023-06-06T20:31:03.143Z,101258.63
2023-06-06T20:33:29.929Z,101255.91
2023-06-06T20:35:58.978Z,101253.28
2023-06-06T20:38:25.965Z,101255.19
2023-06-06T20:40:53.532Z,101259.69
2023-06-06T20:43:24.807Z,101257.69
2023-06-06T20:45:52.795Z,101265.66
2023-06-06T20:48:20.023Z,101257.75
2023-06-06T20:50:47.033Z,101263.88
2023-06-06T20:53:13.919Z,101259.41
2023-06-06T20:55:42.281Z,101265.53
2023-06-06T20:58:09.180Z,101269.19
2023-06-06T21:00:36.200Z,101268.84
2023-06-06T21:03:03.226Z,101270.72
2023-06-06T21:05:30.103Z,101263.69
2023-06-06T21:07:56.819Z,101260.19
2023-06-06T21:10:24.020Z,101258.44
2023-06-06T21:12:50.776Z,101268.34
2023-06-06T21:15:17.589Z,101264.97
2023-06-06T21:17:44.647Z,101265.91
2023-06-06T21:20:12.553Z,101275.34
2023-06-06T21:22:39.558Z,101265.75
2023-06-06T21:25:06.771Z,101277.53
2023-06-06T21:27:33.560Z,101274.75
2023-06-06T21:30:01.072Z,101272.09
2023-06-06T21:32:28.132Z,101273.03
2023-06-06T21:34:54.911Z,101273.94
2023-06-06T21:37:25.591Z,101266.22
2023-06-06T21:39:52.385Z,101269.84
2023-06-06T21:42:19.114Z,101274.81
2023-06-06T21:44:45.966Z,101276.44
2023-06-06T21:47:12.970Z,101275.88
2023-06-06T21:49:43.584Z,101282.28
2023-06-06T21:52:11.028Z,101278.69
2023-06-06T21:54:37.858Z,101277.88
2023-06-06T21:57:04.929Z,101278.97
2023-06-06T21:59:31.638Z,101280.50
2023-06-06T22:01:59.393Z,101274.38
2023-06-06T22:04:26.196Z,101276.41
2023-06-06T22:06:52.930Z,101276.31
2023-06-06T22:09:19.800Z,101268.66
2023-06-06T22:11:46.582Z,101269.56
2023-06-06T22:14:13.309Z,101267.78
2023-06-06T22:16:40.155Z,101264.13
2023-06-06T22:19:06.962Z,101270.31
2023-06-06T22:21:33.621Z,101269.56
2023-06-06T22:24:00.657Z,101279.25
2023-06-06T22:26:28.020Z,101276.53
2023-06-06T22:28:55.000Z,101272.09
2023-06-06T22:31:21.787Z,101274.84
2023-06-06T22:33:48.599Z,101275.91
2023-06-06T22:36:16.013Z,101275.09
2023-06-06T22:38:42.725Z,101276.13
2023-06-06T22:41:09.983Z,101275.06
2023-06-06T22:43:36.920Z,101276.97
2023-06-06T22:46:03.751Z,101272.69
2023-06-06T22:48:30.702Z,101280.47
2023-06-06T22:50:57.440Z,101288.34
2023-06-06T22:53:25.530Z,101287.38
2023-06-06T22:55:52.297Z,101283.84
2023-06-06T22:58:19.228Z,101280.31
2023-06-06T23:00:46.030Z,101282.19
2023-06-06T23:03:12.997Z,101288.50
2023-06-06T23:05:39.819Z,101283.22
2023-06-06T23:08:07.148Z,101290.19
2023-06-06T23:10:33.927Z,101285.06
2023-06-06T23:13:00.798Z,101293.78
2023-06-06T23:15:28.311Z,101285.16
2023-06-06T23:17:55.295Z,101288.66
2023-06-06T23:20:22.654Z,101279.03
2023-06-06T23:22:49.530Z,101284.22
2023-06-06T23:25:16.653Z,101273.66
2023-06-06T23:27:43.466Z,101271.81
2023-06-06T23:30:11.782Z,101272.69
2023-06-06T23:32:38.838Z,101271.06
2023-06-06T23:35:06.115Z,101271.09
2023-06-06T23:37:32.868Z,101268.47
2023-06-06T23:39:59.887Z,101267.63
2023-06-06T23:42:26.809Z,101263.25
2023-06-06T23:44:55.764Z,101267.63
2023-06-06T23:47:22.735Z,101263.31
2023-06-06T23:49:49.458Z,101269.38
2023-06-06T23:52:16.356Z,101262.44
2023-06-06T23:54:43.107Z,101258.94
2023-06-06T23:57:09.727Z,101260.69
2023-06-06T23:59:36.594Z,101264.38
